DRI-NNSC Building Weather observations

Data are for 10 minute period ending at time listed.
 Day   Time   Solar   Ave.   Ave.  Ave.  Vector  Max.   Baro.   Total    
  of    of     Rad.   Air    Rel.  Wind   Wind   Wind  Press.  Precip.   
Year   Day            Temp.  Hum.  Speed  Dir.   Gust                    
2014   (PST)  Kw/m2    F      %     mph   deg.    mph    mb.     in.     
-------------------------------------------------------------------------
 232   10:00   0.75   75.9    24    5.0   153     10   847.5    0.00 
 232   10:10   0.77   76.5    24    4.2   161      9   847.4    0.00 
 232   10:20   0.78   77.1    23    5.1   143      9   847.4    0.00 
 232   10:30   0.80   76.8    23    3.9   155      9   847.3    0.00 
 232   10:40   0.82   77.4    23    5.3   147     10   847.2    0.00 
 232   10:50   0.83   77.5    22    4.2   130      9   847.2    0.00 
 232   11:00   0.84   79.3    21    3.4   175     11   847.1    0.00 
 232   11:10   0.86   79.1    21    3.6   121      7   847.0    0.00 
 232   11:20   0.87   79.6    21    4.0   128      8   846.9    0.00 
 232   11:30   0.88   80.3    21    5.6   152     14   846.7    0.00 
 232   11:40   0.88   81.3    20    5.2   155     11   846.6    0.00 
 232   11:50   0.89   81.7    19    3.9   149     10   846.4    0.00 
 232   12:00   0.89   82.7    17    6.8   184     15   846.3    0.00 
 232   12:10   0.90   82.7    16    5.0   243     11   846.1    0.00 
 232   12:20   0.90   84.1    15    5.8   165     15   845.9    0.00 
 232   12:30   0.91   84.7    15    5.5   187     19   845.9    0.00 
 232   12:40   0.93   85.6    14    8.4   168     19   845.8    0.00 
 232   12:50   0.99   85.9    13    7.7   172     17   845.7    0.00 
 232   13:00   0.97   85.1    14    6.5   250     14   845.7    0.00 
 232   13:10   0.95   85.5    11    8.9   232     15   845.7    0.00 
 232   13:20   0.93   85.6    12    8.1   279     16   845.6    0.00 
 232   13:30   0.91   85.7    11    7.3   280     15   845.5    0.00 
 232   13:40   0.88   86.0    11    7.0   264     15   845.4    0.00 
 232   13:50   0.87   85.0    11   12.7   225     23   845.3    0.00 
 232   14:00   0.86   85.5    10   10.3   234     20   845.2    0.00 
 232   14:10   0.83   85.6    10   11.0   234     22   845.2    0.00 
 232   14:20   0.79   85.3    10   10.7   248     22   845.2    0.00 
 232   14:30   0.75   85.5    10    9.5   227     22   845.2    0.00 
 232   14:40   0.72   84.8    11   10.8   254     22   845.1    0.00 
 232   14:50   0.69   84.7    11   11.4   246     25   845.0    0.00 
 232   15:00   0.66   84.8    12   11.2   260     21   845.0    0.00 
 232   15:10   0.64   84.4    13   14.7   238     26   844.9    0.00 
 232   15:20   0.61   84.1    14   12.3   243     23   845.0    0.00 
 232   15:30   0.57   83.7    14   13.2   238     25   845.0    0.00 
 232   15:40   0.55   83.6    14   14.2   244     25   845.0    0.00 
 232   15:50   0.52   83.8    14   12.1   249     23   845.0    0.00 
 232   16:00   0.49   83.3    14   13.5   261     26   845.0    0.00 
 232   16:10   0.46   82.9    14   13.8   260     25   845.0    0.00 
 232   16:20   0.43   82.8    14   13.1   252     25   845.1    0.00 
 232   16:30   0.40   82.8    14   13.2   252     22   845.1    0.00 
 232   16:40   0.36   82.0    14   13.9   269     26   845.2    0.00 
 232   16:50   0.33   82.1    14   12.9   270     25   845.2    0.00 
 232   17:00   0.30   81.7    15   13.5   261     24   845.2    0.00 
 232   17:10   0.27   81.7    15   13.0   261     25   845.2    0.00 
 232   17:20   0.24   80.9    15   14.6   253     26   845.2    0.00 
 232   17:30   0.21   80.5    16   12.2   249     24   845.3    0.00 
 232   17:40   0.18   80.0    16   13.7   251     27   845.3    0.00 
 232   17:50   0.15   79.5    17   12.5   256     23   845.3    0.00 
 232   18:00   0.12   78.9    18   12.3   262     22   845.4    0.00 
 232   18:10   0.10   78.5    18   10.8   264     20   845.4    0.00 
 232   18:20   0.07   77.6    20   12.3   260     23   845.5    0.00 
 232   18:30   0.02   76.6    21   10.4   263     20   845.6    0.00 
 232   18:40   0.01   76.0    22    9.2   257     20   845.7    0.00 
 232   18:50   0.01   75.3    24    9.1   267     21   845.9    0.00 
 232   19:00   0.00   74.6    25    7.5   274     15   846.1    0.00 
 232   19:10   0.00   74.4    24    8.6   293     15   846.3    0.00 
 232   19:20   0.00   74.0    24    7.9   305     17   846.4    0.00 
 232   19:30   0.00   73.7    24    9.8   308     20   846.5    0.00 
 232   19:40   0.00   73.1    24    7.8   288     14   846.7    0.00 
 232   19:50   0.00   72.9    24    6.8   270     15   846.9    0.00 
 232   20:00   0.00   72.7    24    6.9   275     12   847.1    0.00 
 232   20:10   0.00   72.5    23    9.3   317     21   847.3    0.00 
 232   20:20   0.00   72.2    22   10.9   316     21   847.5    0.00 
 232   20:30   0.00   72.4    22    9.1   287     17   847.6    0.00 
 232   20:40   0.00   71.6    24    8.1   246     17   847.6    0.00 
 232   20:50   0.00   71.7    23   12.2   246     23   847.6    0.00 
 232   21:00   0.00   71.4    24   13.7   233     25   847.6    0.00 
 232   21:10   0.00   70.9    26   13.3   235     22   847.6    0.00 
 232   21:20   0.00   69.9    29   13.6   234     25   847.6    0.00 
 232   21:30   0.00   69.3    30   14.5   234     25   847.6    0.00 
 232   21:40   0.00   69.3    30   13.4   238     24   847.7    0.00 
 232   21:50   0.00   69.5    29    8.2   266     20   847.8    0.00 
 232   22:00   0.00   69.1    29    7.5   272     19   847.8    0.00 
 232   22:10   0.00   69.1    29   11.6   263     23   847.8    0.00 
 232   22:20   0.00   68.8    30   11.1   263     20   847.9    0.00 
 232   22:30   0.00   68.4    30   11.1   268     19   848.0    0.00 
 232   22:40   0.00   68.5    28    9.8   270     17   848.1    0.00 
 232   22:50   0.00   68.2    28    7.2   292     15   848.2    0.00 
 232   23:00   0.00   67.9    29    7.5   310     13   848.2    0.00 
 232   23:10   0.00   68.0    28    6.5   312     12   848.4    0.00 
 232   23:20   0.00   66.6    32    7.9   322     14   848.5    0.00 
 232   23:30   0.00   66.1    33   10.3   317     15   848.5    0.00 
 232   23:40   0.00   65.5    33   11.3   318     19   848.4    0.00 
 232   23:50   0.00   65.4    34   11.1   312     18   848.3    0.00 
 233    0:00   0.00   65.5    33   10.2   316     17   848.5    0.00 
 233    0:10   0.00   65.5    32    8.5   321     15   848.6    0.00 
 233    0:20   0.00   65.4    32    6.2   324     13   848.7    0.00 
 233    0:30   0.00   65.6    32    8.4   349     14   848.7    0.00 
 233    0:40   0.00   65.6    32    7.6   342     15   848.8    0.00 
 233    0:50   0.00   64.1    36    9.7   353     15   848.8    0.00 
 233    1:00   0.00   64.1    36    9.8   342     16   848.8    0.00 
 233    1:10   0.00   64.0    36    8.5   333     15   848.8    0.00 
 233    1:20   0.00   63.4    37    7.3   330     14   848.9    0.00 
 233    1:30   0.00   62.9    38    6.8   331     12   848.9    0.00 
 233    1:40   0.00   62.6    38    7.4   330     12   848.9    0.00 
 233    1:50   0.00   62.4    38    7.6   329     14   848.9    0.00 
 233    2:00   0.00   62.6    37    8.4   332     14   848.9    0.00 
 233    2:10   0.00   62.7    37    6.3   332     12   849.0    0.00 
 233    2:20   0.00   62.6    36    7.6   328     14   849.0    0.00 
 233    2:30   0.00   62.9    36    8.6   333     13   849.1    0.00 
 233    2:40   0.00   62.7    36    7.9   331     14   849.1    0.00 
 233    2:50   0.00   62.7    36    7.5   332     13   849.1    0.00 
 233    3:00   0.00   62.9    36    6.9   338     12   849.2    0.00 
 233    3:10   0.00   62.5    36    5.1   329     10   849.2    0.00 
 233    3:20   0.00   62.2    37    4.2   319      8   849.3    0.00 
 233    3:30   0.00   62.2    36    4.4   327      8   849.2    0.00 
 233    3:40   0.00   62.1    37    3.2   313      8   849.3    0.00 
 233    3:50   0.00   61.2    38    2.5   293      4   849.4    0.00 
 233    4:00   0.00   60.9    38    2.6   314      5   849.5    0.00 
 233    4:10   0.00   60.1    39    3.2   323      8   849.4    0.00 
 233    4:20   0.00   61.5    37    6.6   345     11   849.3    0.00 
 233    4:30   0.00   61.8    36    6.9   334     11   849.3    0.00 
 233    4:40   0.00   61.0    38    4.7   323      9   849.4    0.00 
 233    4:50   0.00   60.2    39    4.9   317      9   849.3    0.00 
 233    5:00   0.00   60.4    39    4.5   322      8   849.3    0.00 
 233    5:10   0.00   60.2    39    2.9   291      6   849.4    0.00 
 233    5:20   0.00   59.5    40    3.9   316      6   849.5    0.00 
 233    5:30   0.01   59.3    40    4.0   324      6   849.7    0.00 
 233    5:40   0.01   60.4    38    4.0   325      6   849.8    0.00 
 233    5:50   0.03   60.7    38    3.7   322      5   849.9    0.00 
 233    6:00   0.07   61.2    38    3.7   327      6   849.9    0.00 
 233    6:10   0.10   61.1    38    4.1   322      6   849.9    0.00 
 233    6:20   0.12   61.0    38    3.3   320      5   850.1    0.00 
 233    6:30   0.14   62.2    37    1.2    10      3   850.2    0.00 
 233    6:40   0.17   63.2    36    1.9   323      4   850.2    0.00 
 233    6:50   0.21   63.2    36    2.4   314      4   850.3    0.00 
 233    7:00   0.24   64.3    35    1.2   275      4   850.4    0.00 
 233    7:10   0.27   65.2    34    1.4   207      3   850.4    0.00 
 233    7:20   0.30   65.3    34    1.4   305      4   850.4    0.00 
 233    7:30   0.34   66.2    35    1.3   217      3   850.4    0.00 
 233    7:40   0.37   66.1    33    2.4   286      5   850.4    0.00 
 233    7:50   0.40   67.2    34    1.7   194      4   850.4    0.00 
 233    8:00   0.43   68.1    34    2.4   167      6   850.3    0.00 
 233    8:10   0.46   67.4    34    3.2   152      7   850.3    0.00 
 233    8:20   0.49   67.8    33    2.8   181      6   850.3    0.00 
 233    8:30   0.52   68.4    32    3.4   153      6   850.3    0.00 
 233    8:40   0.55   69.9    30    1.5   152      4   850.3    0.00 
 233    8:50   0.58   70.1    30    2.8   161      7   850.3    0.00 
 233    9:00   0.60   70.6    30    2.9   168      6   850.4    0.00 
 233    9:10   0.63   71.2    29    2.4   180      6   850.4    0.00 
 233    9:20   0.66   71.9    28    2.8   144      6   850.5    0.00 
 233    9:30   0.68   72.3    27    2.1   158      6   850.4    0.00 
 233    9:40   0.70   71.9    28    3.2   224      6   850.4    0.00 
 233    9:50   0.73   73.3    27    1.9   158      5   850.3    0.00 

Return to NNSC graphs page.


Western Regional Climate Center,wrcc@dri.edu